createdAt,value
2022-10-04T00:01:52.073Z,14.82
2022-10-04T00:04:29.388Z,14.62
2022-10-04T00:07:12.667Z,14.46
2022-10-04T00:09:47.540Z,15.03
2022-10-04T00:12:24.573Z,14.97
2022-10-04T00:14:55.604Z,15.03
2022-10-04T00:17:27.346Z,14.93
2022-10-04T00:19:56.400Z,14.81
2022-10-04T00:22:32.564Z,14.87
2022-10-04T00:25:21.136Z,14.81
2022-10-04T00:28:27.984Z,14.37
2022-10-04T00:31:16.978Z,14.34
2022-10-04T00:33:51.050Z,14.52
2022-10-04T00:36:24.831Z,14.69
2022-10-04T00:39:04.897Z,14.27
2022-10-04T00:41:47.989Z,14.63
2022-10-04T00:44:23.820Z,14.84
2022-10-04T00:46:53.958Z,14.73
2022-10-04T00:49:26.705Z,14.78
2022-10-04T00:52:23.530Z,14.64
2022-10-04T00:54:57.106Z,14.79
2022-10-04T00:57:54.128Z,14.66
2022-10-04T01:00:22.754Z,14.65
2022-10-04T01:03:01.340Z,14.57
2022-10-04T01:05:36.269Z,14.45
2022-10-04T01:08:33.147Z,14.27
2022-10-04T01:11:00.691Z,14.25
2022-10-04T01:13:37.380Z,14.31
2022-10-04T01:16:24.990Z,14.47
2022-10-04T01:18:53.220Z,14.57
2022-10-04T01:21:20.766Z,14.32
2022-10-04T01:23:53.539Z,14.33
2022-10-04T01:26:30.339Z,14.20
2022-10-04T01:29:01.652Z,14.46
2022-10-04T01:31:31.453Z,14.49
2022-10-04T01:34:00.685Z,14.39
2022-10-04T01:36:29.410Z,14.03
2022-10-04T01:38:57.761Z,14.21
2022-10-04T01:41:36.699Z,14.27
2022-10-04T01:44:09.605Z,14.49
2022-10-04T01:46:40.340Z,14.28
2022-10-04T01:49:11.067Z,14.23
2022-10-04T01:51:44.931Z,14.26
2022-10-04T01:54:24.937Z,14.44
2022-10-04T01:57:17.154Z,14.37
2022-10-04T02:00:08.401Z,14.34
2022-10-04T02:02:55.117Z,14.36
2022-10-04T02:05:31.688Z,13.91
2022-10-04T02:08:05.910Z,14.02
2022-10-04T02:10:41.006Z,14.01
2022-10-04T02:13:15.432Z,13.90
2022-10-04T02:15:44.819Z,13.65
2022-10-04T02:18:14.869Z,13.81
2022-10-04T02:20:43.994Z,14.06
2022-10-04T02:23:13.129Z,14.08
2022-10-04T02:25:41.242Z,14.05
2022-10-04T02:28:16.268Z,13.99
2022-10-04T02:31:12.334Z,13.88
2022-10-04T02:33:45.913Z,13.69
2022-10-04T02:36:14.226Z,13.61
2022-10-04T02:38:50.484Z,13.80
2022-10-04T02:41:27.960Z,13.67
2022-10-04T02:44:32.996Z,13.68
2022-10-04T02:47:14.560Z,13.71
2022-10-04T02:49:46.914Z,13.62
2022-10-04T02:52:39.678Z,13.32
2022-10-04T02:55:18.703Z,13.27
2022-10-04T02:57:47.377Z,13.58
2022-10-04T03:00:32.668Z,13.42
2022-10-04T03:03:17.111Z,13.42
2022-10-04T03:05:54.751Z,13.58
2022-10-04T03:08:22.935Z,13.43
2022-10-04T03:10:51.135Z,13.50
2022-10-04T03:13:21.425Z,13.67
2022-10-04T03:15:50.569Z,13.67
2022-10-04T03:18:19.736Z,13.54
2022-10-04T03:20:48.447Z,13.36
2022-10-04T03:23:19.705Z,13.51
2022-10-04T03:25:52.310Z,13.59
2022-10-04T03:28:20.861Z,13.61
2022-10-04T03:30:50.054Z,13.76
2022-10-04T03:33:20.999Z,13.56
2022-10-04T03:35:58.980Z,13.67
2022-10-04T03:38:28.440Z,13.74
2022-10-04T03:41:00.495Z,13.94
2022-10-04T03:43:34.667Z,13.96
2022-10-04T03:46:05.533Z,13.94
2022-10-04T03:48:53.697Z,13.94
2022-10-04T03:51:26.619Z,14.03
2022-10-04T03:53:57.890Z,14.02
2022-10-04T03:56:31.677Z,14.11
2022-10-04T03:58:59.900Z,14.05
2022-10-04T04:01:36.502Z,13.91
2022-10-04T04:04:17.195Z,13.72
2022-10-04T04:06:57.381Z,13.60
2022-10-04T04:09:45.844Z,13.67
2022-10-04T04:12:35.314Z,13.68
2022-10-04T04:15:04.430Z,13.67
2022-10-04T04:17:39.334Z,13.72
2022-10-04T04:20:19.918Z,13.40
2022-10-04T04:22:59.154Z,13.58
2022-10-04T04:25:32.138Z,13.73
2022-10-04T04:28:17.715Z,13.52
2022-10-04T04:30:50.151Z,13.75
2022-10-04T04:33:35.338Z,13.82
2022-10-04T04:36:06.802Z,13.87
2022-10-04T04:38:35.565Z,13.80
2022-10-04T04:41:11.154Z,13.77
2022-10-04T04:43:43.932Z,13.51
2022-10-04T04:46:28.324Z,13.15
2022-10-04T04:49:05.414Z,13.23
2022-10-04T04:51:33.678Z,13.35
2022-10-04T04:54:03.835Z,13.43
2022-10-04T04:56:31.878Z,13.16
2022-10-04T04:59:04.566Z,13.01
2022-10-04T05:01:36.166Z,12.89
2022-10-04T05:04:06.988Z,12.86
2022-10-04T05:06:38.073Z,13.09
2022-10-04T05:09:06.804Z,13.00
2022-10-04T05:11:39.620Z,13.07
2022-10-04T05:14:14.267Z,13.14
2022-10-04T05:16:51.187Z,13.42
2022-10-04T05:19:30.509Z,13.48
2022-10-04T05:22:01.140Z,13.45
2022-10-04T05:24:34.769Z,13.31
2022-10-04T05:27:05.982Z,13.43
2022-10-04T05:29:40.880Z,13.61
2022-10-04T05:32:40.754Z,13.61
2022-10-04T05:35:20.353Z,13.45
2022-10-04T05:37:59.076Z,13.13
2022-10-04T05:40:38.262Z,13.10
2022-10-04T05:43:37.673Z,13.02
2022-10-04T05:46:18.665Z,13.21
2022-10-04T05:48:52.808Z,13.27
2022-10-04T05:51:24.480Z,13.43
2022-10-04T05:53:52.736Z,13.44
2022-10-04T05:56:55.339Z,13.34
2022-10-04T05:59:30.616Z,13.47
2022-10-04T06:02:19.752Z,13.45
2022-10-04T06:05:10.007Z,13.79
2022-10-04T06:07:46.862Z,14.15
2022-10-04T06:10:26.807Z,14.27
2022-10-04T06:13:00.472Z,14.55
2022-10-04T06:15:43.750Z,14.61
2022-10-04T06:18:29.417Z,14.99
2022-10-04T06:21:20.373Z,15.18
2022-10-04T06:23:57.798Z,15.43
2022-10-04T06:26:31.189Z,15.56
2022-10-04T06:29:05.048Z,15.77
2022-10-04T06:31:32.913Z,15.88
2022-10-04T06:34:39.730Z,15.97
2022-10-04T06:37:31.316Z,16.07
2022-10-04T06:40:30.711Z,16.30
2022-10-04T06:43:23.804Z,16.09
2022-10-04T06:46:16.897Z,16.34
2022-10-04T06:49:03.381Z,15.95
2022-10-04T06:52:08.780Z,15.97
2022-10-04T06:54:58.158Z,15.90
2022-10-04T06:58:08.584Z,15.92
2022-10-04T07:00:46.086Z,16.06
2022-10-04T07:03:30.210Z,16.34
2022-10-04T07:06:04.986Z,16.61
2022-10-04T07:08:50.770Z,16.38
2022-10-04T07:11:25.954Z,16.93
2022-10-04T07:14:11.412Z,16.34
2022-10-04T07:16:56.765Z,16.83
2022-10-04T07:19:36.647Z,16.89
2022-10-04T07:22:15.245Z,17.09
2022-10-04T07:25:07.370Z,17.18
2022-10-04T07:28:11.747Z,16.57
2022-10-04T07:30:45.792Z,17.33
2022-10-04T07:33:18.737Z,16.39
2022-10-04T07:35:51.933Z,17.12
2022-10-04T07:38:26.636Z,16.89
2022-10-04T07:40:57.332Z,16.12
2022-10-04T07:43:27.864Z,17.40
2022-10-04T07:46:06.315Z,17.25
2022-10-04T07:48:34.418Z,16.65
2022-10-04T07:51:19.121Z,16.92
2022-10-04T07:54:01.944Z,17.07
2022-10-04T07:56:57.382Z,16.75
2022-10-04T08:00:04.099Z,17.14
2022-10-04T08:02:51.661Z,17.76
2022-10-04T08:05:29.422Z,17.76
2022-10-04T08:08:15.638Z,17.80
2022-10-04T08:10:50.667Z,17.58
2022-10-04T08:13:32.890Z,17.53
2022-10-04T08:16:11.100Z,17.90
2022-10-04T08:18:47.681Z,17.87
2022-10-04T08:21:26.854Z,17.63
2022-10-04T08:24:15.385Z,18.43
2022-10-04T08:26:58.339Z,18.21
2022-10-04T08:29:52.556Z,18.52
2022-10-04T08:32:29.316Z,18.82
2022-10-04T08:35:28.785Z,18.64
2022-10-04T08:38:24.719Z,18.91
2022-10-04T08:41:13.327Z,18.98
2022-10-04T08:44:23.254Z,19.55
2022-10-04T08:47:10.697Z,19.10
2022-10-04T08:50:07.501Z,18.94
2022-10-04T08:52:57.360Z,19.44
2022-10-04T08:55:46.988Z,19.16
2022-10-04T08:58:26.278Z,19.27
2022-10-04T09:01:10.205Z,19.42
2022-10-04T09:04:05.631Z,19.64
2022-10-04T09:07:15.052Z,19.62
2022-10-04T09:09:55.335Z,19.50
2022-10-04T09:12:45.067Z,19.06
2022-10-04T09:15:31.353Z,20.20
2022-10-04T09:18:11.914Z,18.82
2022-10-04T09:20:48.305Z,19.24
2022-10-04T09:23:41.861Z,19.43
2022-10-04T09:26:36.972Z,19.70
2022-10-04T09:29:42.002Z,19.01
2022-10-04T09:32:21.625Z,18.97
2022-10-04T09:35:06.450Z,18.76
2022-10-04T09:37:59.882Z,18.78
2022-10-04T09:41:09.790Z,19.11
2022-10-04T09:44:02.532Z,18.90
2022-10-04T09:46:53.185Z,18.70
2022-10-04T09:49:54.630Z,18.65
2022-10-04T09:52:40.106Z,18.84
2022-10-04T09:55:20.681Z,19.02
2022-10-04T09:58:00.902Z,19.17
2022-10-04T10:01:02.774Z,18.64
2022-10-04T10:04:28.584Z,19.18
2022-10-04T10:07:14.296Z,19.52
2022-10-04T10:10:26.948Z,19.81
2022-10-04T10:13:40.822Z,19.48
2022-10-04T10:16:45.633Z,19.43
2022-10-04T10:19:19.396Z,18.71
2022-10-04T10:22:13.603Z,19.09
2022-10-04T10:25:19.043Z,19.21
2022-10-04T10:28:20.606Z,18.97
2022-10-04T10:31:08.844Z,19.29
2022-10-04T10:33:39.748Z,19.26
2022-10-04T10:39:44.047Z,19.19
2022-10-04T10:42:41.077Z,19.16
2022-10-04T10:45:14.834Z,19.68
2022-10-04T10:48:04.943Z,19.80
2022-10-04T10:51:00.744Z,20.03
2022-10-04T10:53:51.028Z,20.29
2022-10-04T10:57:00.862Z,20.14
2022-10-04T10:59:49.994Z,19.86
2022-10-04T11:02:50.062Z,20.29
2022-10-04T11:05:46.054Z,18.69
2022-10-04T11:09:11.739Z,19.34
2022-10-04T11:11:45.211Z,19.37
2022-10-04T11:14:50.639Z,19.73
2022-10-04T11:17:27.567Z,19.24
2022-10-04T11:20:06.811Z,19.14
2022-10-04T11:22:53.441Z,19.65
2022-10-04T11:25:39.847Z,18.82
2022-10-04T11:28:22.386Z,19.77
2022-10-04T11:30:59.065Z,19.77
2022-10-04T11:33:30.039Z,18.33
2022-10-04T11:36:24.570Z,19.36
2022-10-04T11:38:57.909Z,19.41
2022-10-04T11:41:50.238Z,19.15
2022-10-04T11:44:31.170Z,19.22
2022-10-04T11:47:02.129Z,19.11
2022-10-04T11:49:35.756Z,18.37
2022-10-04T11:52:25.563Z,18.35
2022-10-04T11:55:31.294Z,18.78
2022-10-04T11:58:20.135Z,18.11
2022-10-04T12:01:11.308Z,18.36
2022-10-04T12:04:04.273Z,17.58
2022-10-04T12:06:44.499Z,17.51
2022-10-04T12:09:18.582Z,18.28
2022-10-04T12:12:04.815Z,17.94
2022-10-04T12:14:53.327Z,17.69
2022-10-04T12:17:59.935Z,18.27
2022-10-04T12:20:53.337Z,18.33
2022-10-04T12:23:42.941Z,18.72
2022-10-04T12:26:19.770Z,19.21
2022-10-04T12:28:56.377Z,18.92
2022-10-04T12:31:28.533Z,19.32
2022-10-04T12:34:16.124Z,19.36
2022-10-04T12:36:49.935Z,18.93
2022-10-04T12:39:36.321Z,19.47
2022-10-04T12:42:31.603Z,19.88
2022-10-04T12:45:03.820Z,20.07
2022-10-04T12:47:48.624Z,20.15
2022-10-04T12:50:31.555Z,20.02
2022-10-04T12:53:17.679Z,19.79
2022-10-04T12:56:13.358Z,19.44
2022-10-04T12:58:57.652Z,19.85
2022-10-04T13:01:46.693Z,19.19
2022-10-04T13:04:44.063Z,19.58
2022-10-04T13:07:29.968Z,19.71
2022-10-04T13:10:28.450Z,19.10
2022-10-04T13:13:33.537Z,19.43
2022-10-04T13:19:23.850Z,19.06
2022-10-04T13:22:10.634Z,18.91
2022-10-04T13:24:58.279Z,19.38
2022-10-04T13:27:38.514Z,19.01
2022-10-04T13:30:26.616Z,19.17
2022-10-04T13:33:10.059Z,18.56
2022-10-04T13:35:54.443Z,19.19
2022-10-04T13:38:40.775Z,18.92
2022-10-04T13:41:39.846Z,17.42
2022-10-04T13:44:44.051Z,18.78
2022-10-04T13:47:38.047Z,19.15
2022-10-04T13:50:17.497Z,19.30
2022-10-04T13:53:39.195Z,19.14
2022-10-04T13:56:29.144Z,19.48
2022-10-04T13:59:17.557Z,19.34
2022-10-04T14:02:14.081Z,18.16
2022-10-04T14:04:51.129Z,18.94
2022-10-04T14:07:49.525Z,18.91
2022-10-04T14:10:54.366Z,18.59
2022-10-04T14:20:39.343Z,18.36
2022-10-04T14:23:22.444Z,18.39
2022-10-04T14:26:25.274Z,18.14
2022-10-04T14:29:15.531Z,18.12
2022-10-04T14:31:55.294Z,18.24
2022-10-04T14:34:44.291Z,18.18
2022-10-04T14:37:29.008Z,18.20
2022-10-04T14:40:26.893Z,18.21
2022-10-04T14:43:00.482Z,18.19
2022-10-04T14:45:49.810Z,18.08
2022-10-04T14:48:36.249Z,18.20
2022-10-04T14:51:26.647Z,18.13
2022-10-04T14:54:03.087Z,18.08
2022-10-04T14:57:08.683Z,18.25
2022-10-04T14:59:59.059Z,17.95
2022-10-04T15:02:30.272Z,18.00
2022-10-04T15:05:00.727Z,18.14
2022-10-04T15:07:40.900Z,18.03
2022-10-04T15:10:23.883Z,18.17
2022-10-04T15:13:11.475Z,18.15
2022-10-04T15:16:02.783Z,18.08
2022-10-04T15:19:04.413Z,18.05
2022-10-04T15:21:53.162Z,17.96
2022-10-04T15:24:42.546Z,17.55
2022-10-04T15:27:28.373Z,17.57
2022-10-04T15:30:24.441Z,17.97
2022-10-04T15:33:20.654Z,18.06
2022-10-04T15:36:43.766Z,18.06
2022-10-04T15:39:26.517Z,17.72
2022-10-04T15:42:14.901Z,17.65
2022-10-04T15:45:04.904Z,17.56
2022-10-04T15:47:50.315Z,17.54
2022-10-04T15:50:42.805Z,17.09
2022-10-04T15:53:43.222Z,17.38
2022-10-04T15:56:22.311Z,17.42
2022-10-04T15:58:56.059Z,16.88
2022-10-04T16:01:42.825Z,17.08
2022-10-04T16:04:32.027Z,17.67
2022-10-04T16:07:45.269Z,17.69
2022-10-04T16:10:23.881Z,17.57
2022-10-04T16:13:15.798Z,17.32
2022-10-04T16:15:50.358Z,16.98
2022-10-04T16:18:27.033Z,16.84
2022-10-04T16:21:16.745Z,16.50
2022-10-04T16:23:45.330Z,16.86
2022-10-04T16:26:34.014Z,16.62
2022-10-04T16:29:13.676Z,16.81
2022-10-04T16:31:56.051Z,16.58
2022-10-04T16:34:36.121Z,16.65
2022-10-04T16:37:10.094Z,16.64
2022-10-04T16:40:06.704Z,16.72
2022-10-04T16:43:04.455Z,16.79
2022-10-04T16:45:43.521Z,16.61
2022-10-04T16:48:33.671Z,16.62
2022-10-04T16:51:07.338Z,16.43
2022-10-04T16:53:59.625Z,16.27
2022-10-04T16:56:31.825Z,16.04
2022-10-04T16:59:01.245Z,16.08
2022-10-04T17:01:49.660Z,15.81
2022-10-04T17:04:39.370Z,16.14
2022-10-04T17:07:45.233Z,16.37
2022-10-04T17:10:35.340Z,16.45
2022-10-04T17:13:21.094Z,16.25
2022-10-04T17:15:49.220Z,16.14
2022-10-04T17:18:51.250Z,16.43
2022-10-04T17:22:10.553Z,16.14
2022-10-04T17:24:51.527Z,16.31
2022-10-04T17:27:26.187Z,16.02
2022-10-04T17:29:56.433Z,15.79
2022-10-04T17:32:38.894Z,15.82
2022-10-04T17:35:46.168Z,15.40
2022-10-04T17:38:27.306Z,15.65
2022-10-04T17:41:16.307Z,15.83
2022-10-04T17:43:56.504Z,15.68
2022-10-04T17:46:26.649Z,15.01
2022-10-04T17:49:18.543Z,15.34
2022-10-04T17:52:14.640Z,15.54
2022-10-04T17:55:08.489Z,15.44
2022-10-04T17:57:45.165Z,15.46
2022-10-04T18:00:14.398Z,14.95
2022-10-04T18:03:03.924Z,15.33
2022-10-04T18:05:41.728Z,15.13
2022-10-04T18:08:36.068Z,14.91
2022-10-04T18:11:15.220Z,15.06
2022-10-04T18:14:09.803Z,15.31
2022-10-04T18:16:52.189Z,14.83
2022-10-04T18:19:38.415Z,15.02
2022-10-04T18:22:19.108Z,15.12
2022-10-04T18:25:02.036Z,14.59
2022-10-04T18:27:33.373Z,14.49
2022-10-04T18:30:01.646Z,14.43
2022-10-04T18:32:33.569Z,14.47
2022-10-04T18:35:18.435Z,14.27
2022-10-04T18:37:46.056Z,14.31
2022-10-04T18:40:16.934Z,14.68
2022-10-04T18:42:52.476Z,14.74
2022-10-04T18:45:32.300Z,13.87
2022-10-04T18:48:02.295Z,13.89
2022-10-04T18:50:39.366Z,14.10
2022-10-04T18:53:40.199Z,14.34
2022-10-04T18:56:11.767Z,14.19
2022-10-04T18:59:27.212Z,14.48
2022-10-04T19:02:17.456Z,13.85
2022-10-04T19:05:15.415Z,14.12
2022-10-04T19:08:08.620Z,14.08
2022-10-04T19:11:05.709Z,14.21
2022-10-04T19:13:45.861Z,14.08
2022-10-04T19:16:19.237Z,14.44
2022-10-04T19:18:54.709Z,14.52
2022-10-04T19:21:40.002Z,13.83
2022-10-04T19:24:49.718Z,14.10
2022-10-04T19:27:36.407Z,14.18
2022-10-04T19:30:49.296Z,14.21
2022-10-04T19:33:38.167Z,14.47
2022-10-04T19:39:25.262Z,14.17
2022-10-04T19:42:06.720Z,13.87
2022-10-04T19:44:55.921Z,14.23
2022-10-04T19:47:40.119Z,14.04
2022-10-04T19:50:26.953Z,14.02
2022-10-04T19:53:07.310Z,13.93
2022-10-04T19:55:48.714Z,13.97
2022-10-04T19:58:25.725Z,14.12
2022-10-04T20:00:53.502Z,13.83
2022-10-04T20:03:21.871Z,14.29
2022-10-04T20:05:58.263Z,14.14
2022-10-04T20:09:25.445Z,14.31
2022-10-04T20:11:53.961Z,14.28
2022-10-04T20:14:23.291Z,13.69
2022-10-04T20:16:53.011Z,14.05
2022-10-04T20:19:33.035Z,13.96
2022-10-04T20:22:13.116Z,13.82
2022-10-04T20:24:40.651Z,13.99
2022-10-04T20:27:30.422Z,14.11
2022-10-04T20:30:04.265Z,14.10
2022-10-04T20:32:37.088Z,13.86
2022-10-04T20:35:15.953Z,13.36
2022-10-04T20:38:13.549Z,13.62
2022-10-04T20:40:41.326Z,13.54
2022-10-04T20:43:15.493Z,13.88
2022-10-04T20:45:54.943Z,13.92
2022-10-04T20:48:26.032Z,13.98
2022-10-04T20:50:54.726Z,13.50
2022-10-04T20:53:31.686Z,13.75
2022-10-04T20:56:32.452Z,13.53
2022-10-04T20:59:02.303Z,13.40
2022-10-04T21:01:35.855Z,13.48
2022-10-04T21:04:16.263Z,13.52
2022-10-04T21:07:04.274Z,13.49
2022-10-04T21:09:33.572Z,12.96
2022-10-04T21:12:02.488Z,13.44
2022-10-04T21:14:35.613Z,13.53
2022-10-04T21:17:23.699Z,13.15
2022-10-04T21:19:51.615Z,13.26
2022-10-04T21:22:25.475Z,12.84
2022-10-04T21:25:00.152Z,13.40
2022-10-04T21:27:35.601Z,12.82
2022-10-04T21:30:12.771Z,13.36
2022-10-04T21:32:40.912Z,13.12
2022-10-04T21:35:09.588Z,13.18
2022-10-04T21:37:37.153Z,13.11
2022-10-04T21:40:06.871Z,12.75
2022-10-04T21:42:35.115Z,13.09
2022-10-04T21:45:02.715Z,12.96
2022-10-04T21:47:30.661Z,12.98
2022-10-04T21:49:59.086Z,12.94
2022-10-04T21:52:26.709Z,12.56
2022-10-04T21:54:54.857Z,12.34
2022-10-04T21:57:24.098Z,12.90
2022-10-04T21:59:52.598Z,12.83
2022-10-04T22:02:20.635Z,12.69
2022-10-04T22:04:48.667Z,12.41
2022-10-04T22:07:16.244Z,12.05
2022-10-04T22:09:43.772Z,12.89
2022-10-04T22:12:11.701Z,13.04
2022-10-04T22:14:39.304Z,12.91
2022-10-04T22:17:06.860Z,12.70
2022-10-04T22:19:36.433Z,12.42
2022-10-04T22:22:04.005Z,11.92
2022-10-04T22:24:32.028Z,12.38
2022-10-04T22:27:00.425Z,12.05
2022-10-04T22:29:28.142Z,12.55
2022-10-04T22:31:55.802Z,12.16
2022-10-04T22:34:23.777Z,12.04
2022-10-04T22:36:53.132Z,12.02
2022-10-04T22:39:21.565Z,12.35
2022-10-04T22:42:01.332Z,12.36
2022-10-04T22:44:34.528Z,12.61
2022-10-04T22:47:04.554Z,12.06
2022-10-04T22:49:37.377Z,12.37
2022-10-04T22:52:20.817Z,12.53
2022-10-04T22:54:53.800Z,12.34
2022-10-04T22:57:21.879Z,12.23
2022-10-04T22:59:51.999Z,12.32
2022-10-04T23:02:26.927Z,12.41
2022-10-04T23:04:59.356Z,12.37
2022-10-04T23:07:27.030Z,11.97
2022-10-04T23:09:55.974Z,12.48
2022-10-04T23:12:23.609Z,12.56
2022-10-04T23:14:51.354Z,12.55
2022-10-04T23:17:31.543Z,12.47
2022-10-04T23:20:16.144Z,12.57
2022-10-04T23:22:49.203Z,12.59
2022-10-04T23:25:27.087Z,12.51
2022-10-04T23:28:03.045Z,12.51
2022-10-04T23:30:30.985Z,12.31
2022-10-04T23:33:01.182Z,12.39
2022-10-04T23:35:34.138Z,12.38
2022-10-04T23:38:07.293Z,12.32
2022-10-04T23:40:35.149Z,12.33
2022-10-04T23:43:05.089Z,12.32
2022-10-04T23:45:35.269Z,12.24
2022-10-04T23:48:03.343Z,12.19
2022-10-04T23:50:36.388Z,12.26
2022-10-04T23:53:06.617Z,11.97
2022-10-04T23:55:38.148Z,11.94
2022-10-04T23:58:22.547Z,11.96
